Hovedside
METAR-TAF:

METAR-TAF

Lufthavner :

Sørkjosen lufthavn

Sørkjosen, Norge

breddegrad: 69-47N, lengdegrad: 020-58E, høyde over havet: 0 m

Gjeldene værobservasjon

Denne rapporten ble laget for 2 timer og 10 minutter siden, klokken 13:20 UTC
Vind 1 kt fra skiftende retning
Temperatur -5°C
Luftfuktighet 93%
Trykk 1007 hPa
Sikt 10 km eller mer
ingen skyer under 1500 m og ingen bygeskyer

METAR: ENSR 141320Z VRB01KT CAVOK M05/M06 Q1007 RMK WIND 1119FT 15004KT

Tid: 16:30 (15:30 UTC)


TAF: fraværende

Værobservasjoner og værvarsel for over 4000 flyplasser (METAR- og TAF-rapporter).

Tilgjengelige stasjoner er representert av de røde og gule prikkene på kartet.

Hold musepekeren over prikken for å se navnet på stasjonen.

Klikk så for å se værobservasjoner og -varsler.

For å forandre kartet kan du klikke på den grønne knappen med svart kryss for å zoome inn, på den grønne knappen med strek for å zoome ut, eller på de grønne pilene for å se tilstøtende kart.


METAR-TAF: